| Date | Time | Temp. (oF) | Dew Point (oF) | Rel. Hum. (%) | Press. (in.) | Wind Dir. | Wind Speed (mph) | Hourly Rainfall (in.) |
|
|---|---|---|---|---|---|---|---|---|---|
| 1 | 05/29 | 00:00 | 67 | 63 | 90 | 30.14 | ENE | 2 | 0.00 |
| 2 | 05/28 | 23:00 | 68 | 63 | 85 | 30.14 | E | 4 | 0.00 |
| 3 | 05/28 | 22:00 | 69 | 60 | 74 | 30.13 | ESE | 5 | 0.00 |
| 4 | 05/28 | 21:00 | 72 | 62 | 71 | 30.13 | SE | 4 | 0.00 |
| 5 | 05/28 | 20:00 | 74 | 65 | 74 | 30.11 | SE | 2 | 0.00 |
| 6 | 05/28 | 19:00 | 77 | 68 | 76 | 30.11 | ESE | 2 | 0.00 |
| 7 | 05/28 | 18:00 | 76 | 67 | 75 | 30.10 | S | 2 | 0.00 |
| 8 | 05/28 | 17:00 | 76 | 67 | 76 | 30.11 | SSE | 3 | 0.00 |
| 9 | 05/28 | 16:00 | 75 | 69 | 82 | 30.12 | SE | 3 | 0.00 |
| 10 | 05/28 | 15:00 | 74 | 68 | 83 | 30.14 | SSE | 5 | 0.00 |
| 11 | 05/28 | 14:00 | 75 | 68 | 79 | 30.15 | SSW | 4 | 0.00 |
| 12 | 05/28 | 13:00 | 76 | 69 | 81 | 30.16 | SSE | 5 | 0.00 |
| 13 | 05/28 | 12:00 | 74 | 67 | 79 | 30.17 | S | 6 | 0.00 |
| 14 | 05/28 | 11:00 | 74 | 68 | 82 | 30.17 | ESE | 5 | 0.00 |
| 15 | 05/28 | 10:00 | 71 | 66 | 86 | 30.17 | S | 0 | 0.00 |
| 16 | miss | miss | miss | miss | miss | miss | miss | miss | |
| 17 | 05/24 | 15:03 | 82 | 60 | 49 | 29.88 | WSW | 12 | 0.00 |
| 18 | miss | miss | miss | miss | miss | miss | miss | miss | |
| 19 | 05/24 | 15:01 | 82 | 59 | 47 | 29.87 | W | 8 | 0.00 |
| 20 | miss | miss | miss | miss | miss | miss | miss | miss | |
| 21 | 05/24 | 14:59 | 81 | 58 | 46 | 29.87 | SW | 8 | 0.00 |
| 22 | 05/24 | 14:58 | 81 | 58 | 47 | 29.87 | SSW | 10 | 0.00 |
| 23 | 05/24 | 14:57 | 81 | 58 | 46 | 29.87 | SSW | 4 | 0.00 |
| 24 | 05/24 | 14:56 | 81 | 57 | 45 | 29.87 | WNW | 4 | 0.00 |
| 25 | miss | miss | miss | miss | miss | miss | miss | miss | |
| 26 | 05/24 | 14:55 | 82 | 59 | 47 | 29.87 | W | 13 | 0.00 |
| 27 | miss | miss | miss | miss | miss | miss | miss | miss | |
| 28 | 05/24 | 14:55 | 82 | 59 | 47 | 29.87 | W | 13 | 0.00 |
| 29 | miss | miss | miss | miss | miss | miss | miss | miss | |
| 30 | 05/24 | 14:55 | 82 | 59 | 47 | 29.87 | W | 13 | 0.00 |
| 31 | miss | miss | miss | miss | miss | miss | miss | miss | |
| 32 | 05/24 | 14:55 | 82 | 59 | 47 | 29.87 | W | 13 | 0.00 |
| 33 | miss | miss | miss | miss | miss | miss | miss | miss | |
| 34 | 05/24 | 14:55 | 82 | 59 | 47 | 29.87 | W | 13 | 0.00 |
| 35 | 05/24 | 14:00 | 81 | 58 | 47 | 29.89 | SW | 6 | 0.00 |
| 36 | 05/24 | 13:00 | 79 | 56 | 47 | 29.90 | WSW | 8 | 0.00 |
| 37 | 05/24 | 12:00 | 78 | 57 | 50 | 29.92 | W | 7 | 0.00 |
| 38 | 05/24 | 11:00 | 75 | 55 | 51 | 29.94 | WSW | 6 | 0.00 |
| 39 | 05/24 | 10:00 | 71 | 54 | 56 | 29.96 | W | 7 | 0.00 |
| 40 | 05/24 | 09:00 | 63 | 54 | 73 | 29.97 | SE | 2 | 0.00 |
| 41 | 05/24 | 08:00 | 56 | 54 | 94 | 29.98 | SE | 1 | 0.00 |
| 42 | 05/24 | 07:00 | 49 | 47 | 96 | 29.98 | NW | 0 | 0.00 |
| 43 | 05/24 | 06:00 | 48 | 46 | 93 | 29.98 | NW | 0 | 0.00 |
| 44 | 05/24 | 05:00 | 49 | 46 | 91 | 29.99 | NW | 0 | 0.00 |
| 45 | 05/24 | 04:00 | 50 | 46 | 88 | 29.98 | NNW | 0 | 0.00 |
| 46 | 05/24 | 03:00 | 52 | 47 | 85 | 29.99 | NNW | 0 | 0.00 |
| 47 | 05/24 | 02:00 | 54 | 47 | 78 | 30.01 | WSW | 0 | 0.00 |
| 48 | 05/24 | 01:00 | 56 | 47 | 73 | 30.01 | SW | 0 | 0.00 |
| 49 | 05/24 | 00:00 | 58 | 47 | 68 | 30.01 | S | 2 | 0.00 |
| 50 | 05/23 | 23:00 | 60 | 47 | 64 | 30.03 | S | 3 | 0.00 |
| 51 | 05/23 | 22:00 | 63 | 48 | 59 | 30.02 | S | 6 | 0.00 |
| 52 | 05/23 | 21:00 | 65 | 49 | 58 | 30.00 | S | 4 | 0.00 |
| 53 | 05/23 | 20:00 | 70 | 47 | 45 | 30.01 | S | 7 | 0.00 |
| 54 | 05/23 | 19:00 | 74 | 42 | 33 | 30.03 | W | 2 | 0.00 |
| 55 | 05/23 | 18:00 | 75 | 42 | 32 | 30.05 | SSW | 5 | 0.00 |
| 56 | 05/23 | 17:00 | 75 | 42 | 32 | 30.06 | SSE | 6 | 0.00 |
| 57 | 05/23 | 16:00 | 74 | 44 | 35 | 30.08 | SSW | 3 | 0.00 |
| 58 | 05/23 | 15:00 | 73 | 44 | 36 | 30.11 | S | 7 | 0.00 |
| 59 | 05/23 | 14:00 | 72 | 42 | 35 | 30.14 | SSE | 4 | 0.00 |
| 60 | 05/23 | 13:00 | 70 | 46 | 43 | 30.17 | ESE | 4 | 0.00 |
| 61 | 05/23 | 12:00 | 67 | 46 | 48 | 30.20 | SSW | 1 | 0.00 |
| 62 | 05/23 | 11:00 | 64 | 43 | 48 | 30.24 | SW | 4 | 0.00 |
| 63 | 05/23 | 10:00 | 61 | 46 | 59 | 30.27 | SSE | 3 | 0.00 |
| 64 | 05/23 | 09:00 | 55 | 45 | 71 | 30.28 | S | 3 | 0.00 |
| 65 | 05/23 | 08:00 | 48 | 46 | 95 | 30.28 | SSE | 2 | 0.00 |
| 66 | 05/23 | 07:00 | 40 | 39 | 97 | 30.28 | SSE | 0 | 0.00 |
| 67 | 05/23 | 06:00 | 40 | 38 | 96 | 30.28 | SSE | 0 | 0.00 |
| 68 | 05/23 | 05:00 | 41 | 39 | 95 | 30.27 | ESE | 0 | 0.00 |